createdAt,value
2023-02-13T00:02:16.138Z,6.51
2023-02-13T00:04:42.413Z,6.53
2023-02-13T00:07:09.298Z,6.50
2023-02-13T00:09:35.541Z,6.51
2023-02-13T00:12:01.771Z,6.51
2023-02-13T00:14:28.001Z,6.51
2023-02-13T00:16:54.212Z,6.52
2023-02-13T00:19:20.436Z,6.51
2023-02-13T00:21:46.664Z,6.51
2023-02-13T00:24:12.894Z,6.49
2023-02-13T00:26:39.100Z,6.49
2023-02-13T00:29:05.513Z,6.47
2023-02-13T00:31:31.800Z,6.46
2023-02-13T00:33:58.175Z,6.44
2023-02-13T00:36:24.386Z,6.42
2023-02-13T00:38:50.604Z,6.41
2023-02-13T00:41:16.855Z,6.42
2023-02-13T00:43:43.500Z,6.43
2023-02-13T00:46:09.805Z,6.41
2023-02-13T00:48:36.079Z,6.41
2023-02-13T00:51:02.475Z,6.37
2023-02-13T00:53:28.694Z,6.37
2023-02-13T00:55:54.907Z,6.38
2023-02-13T00:58:21.154Z,6.38
2023-02-13T01:00:47.421Z,6.39
2023-02-13T01:03:16.012Z,6.38
2023-02-13T01:05:42.553Z,6.36
2023-02-13T01:08:08.789Z,6.33
2023-02-13T01:10:35.019Z,6.34
2023-02-13T01:13:01.251Z,6.31
2023-02-13T01:15:27.448Z,6.32
2023-02-13T01:17:54.086Z,6.35
2023-02-13T01:20:20.295Z,6.38
2023-02-13T01:22:46.517Z,6.39
2023-02-13T01:25:12.753Z,6.35
2023-02-13T01:27:38.966Z,6.35
2023-02-13T01:30:06.003Z,6.41
2023-02-13T01:32:32.206Z,6.38
2023-02-13T01:34:58.422Z,6.36
2023-02-13T01:37:24.634Z,6.31
2023-02-13T01:39:50.859Z,6.38
2023-02-13T01:42:17.634Z,6.35
2023-02-13T01:44:47.927Z,6.40
2023-02-13T01:47:14.465Z,6.37
2023-02-13T01:49:40.691Z,6.37
2023-02-13T01:52:06.908Z,6.36
2023-02-13T01:54:33.360Z,6.37
2023-02-13T01:57:00.904Z,6.40
2023-02-13T01:59:28.780Z,6.36
2023-02-13T02:01:55.222Z,6.33
2023-02-13T02:04:22.573Z,6.35
2023-02-13T02:06:52.892Z,6.31
2023-02-13T02:09:20.164Z,6.34
2023-02-13T02:12:12.865Z,6.36
2023-02-13T02:14:39.392Z,6.39
2023-02-13T02:17:05.638Z,6.34
2023-02-13T02:19:36.768Z,6.30
2023-02-13T02:22:09.177Z,6.31
2023-02-13T02:24:55.856Z,6.31
2023-02-13T02:27:40.997Z,6.30
2023-02-13T02:30:11.684Z,6.30
2023-02-13T02:32:49.453Z,6.29
2023-02-13T02:35:22.610Z,6.28
2023-02-13T02:38:07.567Z,6.28
2023-02-13T02:40:52.556Z,6.29
2023-02-13T02:43:21.469Z,6.29
2023-02-13T02:46:07.933Z,6.28
2023-02-13T02:48:39.236Z,6.26
2023-02-13T02:51:07.798Z,6.23
2023-02-13T02:53:46.213Z,6.23
2023-02-13T02:56:30.860Z,6.22
2023-02-13T02:58:58.929Z,6.23
2023-02-13T03:01:25.364Z,6.26
2023-02-13T03:03:51.588Z,6.21
2023-02-13T03:06:23.164Z,6.23
2023-02-13T03:08:54.328Z,6.21
2023-02-13T03:11:21.106Z,6.17
2023-02-13T03:13:47.348Z,6.17
2023-02-13T03:16:15.566Z,6.17
2023-02-13T03:18:43.386Z,6.18
2023-02-13T03:21:16.471Z,6.16
2023-02-13T03:23:53.093Z,6.13
2023-02-13T03:26:38.689Z,6.12
2023-02-13T03:29:13.228Z,6.14
2023-02-13T03:31:44.399Z,6.11
2023-02-13T03:34:12.080Z,6.11
2023-02-13T03:36:46.031Z,6.11
2023-02-13T03:39:18.456Z,6.11
2023-02-13T03:41:53.326Z,6.13
2023-02-13T03:44:25.774Z,6.12
2023-02-13T03:46:52.665Z,6.16
2023-02-13T03:49:22.576Z,6.15
2023-02-13T03:51:51.756Z,6.13
2023-02-13T03:54:19.446Z,6.05
2023-02-13T03:56:45.658Z,6.06
2023-02-13T03:59:16.636Z,6.05
2023-02-13T04:01:51.189Z,6.03
2023-02-13T04:04:19.963Z,6.02
2023-02-13T04:06:50.672Z,6.03
2023-02-13T04:09:16.878Z,5.99
2023-02-13T04:12:18.711Z,5.96
2023-02-13T04:14:55.962Z,5.99
2023-02-13T04:17:27.157Z,5.97
2023-02-13T04:19:53.359Z,5.97
2023-02-13T04:22:19.583Z,5.97
2023-02-13T04:24:45.807Z,5.96
2023-02-13T04:27:13.230Z,5.94
2023-02-13T04:29:39.446Z,6.00
2023-02-13T04:32:05.663Z,5.99
2023-02-13T04:34:31.892Z,5.99
2023-02-13T04:36:58.092Z,5.97
2023-02-13T04:39:24.316Z,5.96
2023-02-13T04:41:50.535Z,5.96
2023-02-13T04:44:16.798Z,5.96
2023-02-13T04:46:43.019Z,5.95
2023-02-13T04:49:10.111Z,5.92
2023-02-13T04:51:36.333Z,5.92
2023-02-13T04:54:03.531Z,5.89
2023-02-13T04:56:29.749Z,5.90
2023-02-13T04:58:55.976Z,5.88
2023-02-13T05:01:22.287Z,5.88
2023-02-13T05:03:48.523Z,5.88
2023-02-13T05:06:14.762Z,5.88
2023-02-13T05:08:40.996Z,5.86
2023-02-13T05:11:07.270Z,5.85
2023-02-13T05:13:33.511Z,5.87
2023-02-13T05:15:59.774Z,5.86
2023-02-13T05:18:26.035Z,5.84
2023-02-13T05:20:52.240Z,5.84
2023-02-13T05:23:18.456Z,5.85
2023-02-13T05:25:44.672Z,5.85
2023-02-13T05:28:10.928Z,5.87
2023-02-13T05:30:37.187Z,5.85
2023-02-13T05:33:06.413Z,5.85
2023-02-13T05:35:32.634Z,5.89
2023-02-13T05:37:58.838Z,5.87
2023-02-13T05:40:25.057Z,5.85
2023-02-13T05:42:51.424Z,5.85
2023-02-13T05:45:17.628Z,5.85
2023-02-13T05:47:43.827Z,5.86
2023-02-13T05:50:10.127Z,5.84
2023-02-13T05:52:36.338Z,5.80
2023-02-13T05:55:02.571Z,5.80
2023-02-13T05:57:28.784Z,5.80
2023-02-13T05:59:54.989Z,5.80
2023-02-13T06:02:21.239Z,5.83
2023-02-13T06:04:47.456Z,5.81
2023-02-13T06:07:13.662Z,5.78
2023-02-13T06:09:39.877Z,5.79
2023-02-13T06:12:06.144Z,5.80
2023-02-13T06:14:32.348Z,5.83
2023-02-13T06:16:58.563Z,5.80
2023-02-13T06:19:24.778Z,5.82
2023-02-13T06:21:50.983Z,5.86
2023-02-13T06:24:17.234Z,5.87
2023-02-13T06:26:43.436Z,5.85
2023-02-13T06:29:09.691Z,5.80
2023-02-13T06:31:36.183Z,5.87
2023-02-13T06:34:02.442Z,5.85
2023-02-13T06:36:28.665Z,5.82
2023-02-13T06:38:54.870Z,5.82
2023-02-13T06:41:21.083Z,5.82
2023-02-13T06:43:47.300Z,5.86
2023-02-13T06:46:13.575Z,5.84
2023-02-13T06:48:39.797Z,5.85
2023-02-13T06:51:06.098Z,5.83
2023-02-13T06:53:32.343Z,5.82
2023-02-13T06:55:58.568Z,5.87
2023-02-13T06:58:24.851Z,5.85
2023-02-13T07:00:51.202Z,5.80
2023-02-13T07:03:17.463Z,5.84
2023-02-13T07:05:43.838Z,5.84
2023-02-13T07:08:10.359Z,5.92
2023-02-13T07:10:37.187Z,5.92
2023-02-13T07:13:06.118Z,5.93
2023-02-13T07:15:33.208Z,5.93
2023-02-13T07:17:59.426Z,5.88
2023-02-13T07:20:25.732Z,5.88
2023-02-13T07:22:51.930Z,5.85
2023-02-13T07:25:18.265Z,5.86
2023-02-13T07:27:44.454Z,5.86
2023-02-13T07:30:11.009Z,5.86
2023-02-13T07:32:37.202Z,5.88
2023-02-13T07:35:03.495Z,5.84
2023-02-13T07:37:30.133Z,5.86
2023-02-13T07:39:56.339Z,5.85
2023-02-13T07:42:22.544Z,5.89
2023-02-13T07:44:48.759Z,5.85
2023-02-13T07:47:14.954Z,5.87
2023-02-13T07:49:41.154Z,5.88
2023-02-13T07:52:07.490Z,5.89
2023-02-13T07:54:33.697Z,5.89
2023-02-13T07:56:59.924Z,5.89
2023-02-13T07:59:26.118Z,5.93
2023-02-13T08:01:52.378Z,5.91
2023-02-13T08:04:18.660Z,5.94
2023-02-13T08:06:44.924Z,5.93
2023-02-13T08:09:14.043Z,5.97
2023-02-13T08:11:40.250Z,5.98
2023-02-13T08:14:06.454Z,6.05
2023-02-13T08:16:32.727Z,6.05
2023-02-13T08:18:58.985Z,6.02
2023-02-13T08:21:25.198Z,6.03
2023-02-13T08:23:51.400Z,6.08
2023-02-13T08:26:17.676Z,6.11
2023-02-13T08:28:43.948Z,6.14
2023-02-13T08:31:11.922Z,6.13
2023-02-13T08:33:38.258Z,6.16
2023-02-13T08:36:04.576Z,6.22
2023-02-13T08:38:30.771Z,6.26
2023-02-13T08:40:57.327Z,6.25
2023-02-13T08:43:23.736Z,6.26
2023-02-13T08:45:49.976Z,6.28
2023-02-13T08:48:16.220Z,6.30
2023-02-13T08:50:42.422Z,6.27
2023-02-13T08:53:08.621Z,6.33
2023-02-13T08:55:34.850Z,6.32
2023-02-13T08:58:01.455Z,6.31
2023-02-13T09:00:27.877Z,6.34
2023-02-13T09:02:54.148Z,6.36
2023-02-13T09:05:20.376Z,6.40
2023-02-13T09:07:46.594Z,6.38
2023-02-13T09:10:12.804Z,6.40
2023-02-13T09:12:39.014Z,6.41
2023-02-13T09:15:05.406Z,6.45
2023-02-13T09:17:31.623Z,6.45
2023-02-13T09:19:57.843Z,6.50
2023-02-13T09:22:24.057Z,6.51
2023-02-13T09:24:50.269Z,6.52
2023-02-13T09:27:16.490Z,6.55
2023-02-13T09:29:42.707Z,6.57
2023-02-13T09:32:08.984Z,6.57
2023-02-13T09:34:35.202Z,6.60
2023-02-13T09:37:01.409Z,6.62
2023-02-13T09:39:27.612Z,6.64
2023-02-13T09:41:53.830Z,6.68
2023-02-13T09:44:21.992Z,6.71
2023-02-13T09:46:48.228Z,6.70
2023-02-13T09:49:15.431Z,6.72
2023-02-13T09:51:42.537Z,6.72
2023-02-13T09:54:08.755Z,6.77
2023-02-13T09:56:40.090Z,6.78
2023-02-13T09:59:29.587Z,6.79
2023-02-13T10:01:55.864Z,6.85
2023-02-13T10:04:22.035Z,6.86
2023-02-13T10:06:50.353Z,6.86
2023-02-13T10:09:16.514Z,6.85
2023-02-13T10:11:45.338Z,6.87
2023-02-13T10:14:18.739Z,6.89
2023-02-13T10:16:45.919Z,6.94
2023-02-13T10:19:12.064Z,6.90
2023-02-13T10:21:38.940Z,6.85
2023-02-13T10:24:25.083Z,6.84
2023-02-13T10:26:51.279Z,6.89
2023-02-13T10:29:35.959Z,6.96
2023-02-13T10:32:02.890Z,6.94
2023-02-13T10:34:31.242Z,6.91
2023-02-13T10:36:57.449Z,6.96
2023-02-13T10:39:24.405Z,6.97
2023-02-13T10:41:53.721Z,6.96
2023-02-13T10:44:37.869Z,7.04
2023-02-13T10:47:09.292Z,7.02
2023-02-13T10:49:35.440Z,7.02
2023-02-13T10:52:19.742Z,6.99
2023-02-13T10:55:04.092Z,7.06
2023-02-13T10:57:53.347Z,7.13
2023-02-13T11:00:36.704Z,7.17
2023-02-13T11:03:02.939Z,7.21
2023-02-13T11:05:30.766Z,7.24
2023-02-13T11:07:56.965Z,7.26
2023-02-13T11:10:24.280Z,7.22
2023-02-13T11:12:50.564Z,7.17
2023-02-13T11:15:32.257Z,7.19
2023-02-13T11:17:59.642Z,7.15
2023-02-13T11:20:28.850Z,7.15
2023-02-13T11:22:55.099Z,7.24
2023-02-13T11:25:30.336Z,7.24
2023-02-13T11:28:16.836Z,7.33
2023-02-13T11:30:43.061Z,7.27
2023-02-13T11:33:24.688Z,7.28
2023-02-13T11:35:50.890Z,7.30
2023-02-13T11:38:17.053Z,7.36
2023-02-13T11:40:43.596Z,7.18
2023-02-13T11:43:14.302Z,7.20
2023-02-13T11:45:40.629Z,7.15
2023-02-13T11:48:15.472Z,7.13
2023-02-13T11:50:41.700Z,7.11
2023-02-13T11:53:08.861Z,7.07
2023-02-13T11:55:35.890Z,7.18
2023-02-13T11:58:05.126Z,7.15
2023-02-13T12:00:32.611Z,7.13
2023-02-13T12:02:58.928Z,7.14
2023-02-13T12:05:26.136Z,7.05
2023-02-13T12:07:52.350Z,7.03
2023-02-13T12:10:20.058Z,7.07
2023-02-13T12:12:56.231Z,7.04
2023-02-13T12:15:26.335Z,7.12
2023-02-13T12:17:56.282Z,7.12
2023-02-13T12:20:22.529Z,7.12
2023-02-13T12:22:54.227Z,7.05
2023-02-13T12:25:39.570Z,7.03
2023-02-13T12:28:15.417Z,7.08
2023-02-13T12:30:44.728Z,7.15
2023-02-13T12:33:19.791Z,7.15
2023-02-13T12:36:01.814Z,7.04
2023-02-13T12:38:35.108Z,7.05
2023-02-13T12:41:01.542Z,7.05
2023-02-13T12:43:27.770Z,7.05
2023-02-13T12:45:53.963Z,7.00
2023-02-13T12:48:39.075Z,7.00
2023-02-13T12:51:08.322Z,6.97
2023-02-13T12:53:36.587Z,7.00
2023-02-13T12:56:08.924Z,7.01
2023-02-13T12:58:44.727Z,7.00
2023-02-13T13:01:26.433Z,6.98
2023-02-13T13:04:01.713Z,6.95
2023-02-13T13:06:43.855Z,6.88
2023-02-13T13:09:22.341Z,6.95
2023-02-13T13:11:48.536Z,6.89
2023-02-13T13:14:17.721Z,6.87
2023-02-13T13:16:51.383Z,6.88
2023-02-13T13:19:24.291Z,6.94
2023-02-13T13:22:11.875Z,6.92
2023-02-13T13:24:56.610Z,6.99
2023-02-13T13:27:26.614Z,6.88
2023-02-13T13:29:57.153Z,6.88
2023-02-13T13:32:23.402Z,6.88
2023-02-13T13:34:49.624Z,6.90
2023-02-13T13:37:30.495Z,6.82
2023-02-13T13:40:01.748Z,6.80
2023-02-13T13:42:34.717Z,6.77
2023-02-13T13:45:09.956Z,6.83
2023-02-13T13:47:47.131Z,6.81
2023-02-13T13:50:26.456Z,6.80
2023-02-13T13:53:07.989Z,6.79
2023-02-13T13:55:46.333Z,6.74
2023-02-13T13:58:21.369Z,6.78
2023-02-13T14:00:48.407Z,6.72
2023-02-13T14:03:21.968Z,6.69
2023-02-13T14:05:58.427Z,6.70
2023-02-13T14:08:39.886Z,6.74
2023-02-13T14:11:06.720Z,6.72
2023-02-13T14:13:36.989Z,6.67
2023-02-13T14:16:03.806Z,6.74
2023-02-13T14:18:30.062Z,6.72
2023-02-13T14:20:57.355Z,6.69
2023-02-13T14:23:26.795Z,6.66
2023-02-13T14:26:11.773Z,6.67
2023-02-13T14:28:37.997Z,6.67
2023-02-13T14:31:05.737Z,6.69
2023-02-13T14:33:32.130Z,6.58
2023-02-13T14:36:05.986Z,6.60
2023-02-13T14:38:32.211Z,6.67
2023-02-13T14:40:58.683Z,6.66
2023-02-13T14:43:32.289Z,6.68
2023-02-13T14:46:02.504Z,6.67
2023-02-13T14:48:32.870Z,6.62
2023-02-13T14:50:59.401Z,6.59
2023-02-13T14:53:26.852Z,6.58
2023-02-13T14:56:02.828Z,6.53
2023-02-13T14:58:32.400Z,6.50
2023-02-13T15:01:05.535Z,6.47
2023-02-13T15:03:58.181Z,6.43
2023-02-13T15:06:28.842Z,6.45
2023-02-13T15:08:55.075Z,6.39
2023-02-13T15:11:37.465Z,6.38
2023-02-13T15:14:15.889Z,6.33
2023-02-13T15:16:42.101Z,6.31
2023-02-13T15:19:12.061Z,6.24
2023-02-13T15:21:38.288Z,6.22
2023-02-13T15:24:04.567Z,6.20
2023-02-13T15:26:30.799Z,6.25
2023-02-13T15:29:00.843Z,6.14
2023-02-13T15:31:32.027Z,6.08
2023-02-13T15:33:58.410Z,6.02
2023-02-13T15:36:25.213Z,6.07
2023-02-13T15:39:01.505Z,6.04
2023-02-13T15:41:29.961Z,6.02
2023-02-13T15:43:56.493Z,6.02
2023-02-13T15:46:26.178Z,6.00
2023-02-13T15:48:52.852Z,5.97
2023-02-13T15:51:19.526Z,5.96
2023-02-13T15:53:52.486Z,5.91
2023-02-13T15:56:18.869Z,6.01
2023-02-13T15:58:45.165Z,5.92
2023-02-13T16:01:11.384Z,5.89
2023-02-13T16:03:37.593Z,5.88
2023-02-13T16:06:04.715Z,5.86
2023-02-13T16:08:32.148Z,5.87
2023-02-13T16:11:16.657Z,5.82
2023-02-13T16:13:59.431Z,5.80
2023-02-13T16:16:25.890Z,5.86
2023-02-13T16:18:52.150Z,5.80
2023-02-13T16:21:24.916Z,5.79
2023-02-13T16:23:52.193Z,5.73
2023-02-13T16:26:18.418Z,5.76
2023-02-13T16:28:45.744Z,5.74
2023-02-13T16:31:14.240Z,5.73
2023-02-13T16:33:40.525Z,5.71
2023-02-13T16:36:09.724Z,5.71
2023-02-13T16:38:56.172Z,5.68
2023-02-13T16:41:22.387Z,5.68
2023-02-13T16:43:58.031Z,5.66
2023-02-13T16:46:36.379Z,5.66
2023-02-13T16:49:08.696Z,5.62
2023-02-13T16:51:41.556Z,5.62
2023-02-13T16:54:11.364Z,5.63
2023-02-13T16:56:38.890Z,5.59
2023-02-13T16:59:17.501Z,5.70
2023-02-13T17:01:43.815Z,5.62
2023-02-13T17:04:21.757Z,5.63
2023-02-13T17:06:47.994Z,5.57
2023-02-13T17:09:14.198Z,5.57
2023-02-13T17:11:40.424Z,5.64
2023-02-13T17:14:06.622Z,5.65
2023-02-13T17:16:32.891Z,5.61
2023-02-13T17:18:59.131Z,5.60
2023-02-13T17:21:25.342Z,5.59
2023-02-13T17:23:53.915Z,5.68
2023-02-13T17:26:20.127Z,5.64
2023-02-13T17:28:46.327Z,5.61
2023-02-13T17:31:12.592Z,5.57
2023-02-13T17:33:38.849Z,5.59
2023-02-13T17:36:05.906Z,5.62
2023-02-13T17:38:32.127Z,5.59
2023-02-13T17:40:58.582Z,5.65
2023-02-13T17:43:25.082Z,5.63
2023-02-13T17:45:51.338Z,5.61
2023-02-13T17:48:17.589Z,5.59
2023-02-13T17:50:43.810Z,5.58
2023-02-13T17:53:16.852Z,5.55
2023-02-13T17:55:43.056Z,5.55
2023-02-13T17:58:09.283Z,5.55
2023-02-13T18:00:35.520Z,5.56
2023-02-13T18:03:01.784Z,5.55
2023-02-13T18:05:28.256Z,5.54
2023-02-13T18:07:54.484Z,5.53
2023-02-13T18:10:21.893Z,5.53
2023-02-13T18:12:48.144Z,5.53
2023-02-13T18:15:14.413Z,5.62
2023-02-13T18:17:40.691Z,5.62
2023-02-13T18:20:07.202Z,5.61
2023-02-13T18:22:33.420Z,5.55
2023-02-13T18:25:00.375Z,5.54
2023-02-13T18:27:26.600Z,5.54
2023-02-13T18:29:53.481Z,5.50
2023-02-13T18:32:19.729Z,5.53
2023-02-13T18:34:45.948Z,5.49
2023-02-13T18:37:12.173Z,5.48
2023-02-13T18:39:38.385Z,5.48
2023-02-13T18:42:04.631Z,5.48
2023-02-13T18:44:30.863Z,5.48
2023-02-13T18:46:57.113Z,5.45
2023-02-13T18:49:23.327Z,5.45
2023-02-13T18:51:49.723Z,5.45
2023-02-13T18:54:15.945Z,5.46
2023-02-13T18:56:42.174Z,5.46
2023-02-13T18:59:08.380Z,5.42
2023-02-13T19:01:34.694Z,5.45
2023-02-13T19:04:01.082Z,5.47
2023-02-13T19:06:27.305Z,5.42
2023-02-13T19:08:53.744Z,5.40
2023-02-13T19:11:21.768Z,5.41
2023-02-13T19:13:47.985Z,5.41
2023-02-13T19:16:17.748Z,5.39
2023-02-13T19:18:45.582Z,5.42
2023-02-13T19:21:11.838Z,5.42
2023-02-13T19:23:38.060Z,5.40
2023-02-13T19:26:05.175Z,5.38
2023-02-13T19:28:31.382Z,5.37
2023-02-13T19:31:05.916Z,5.38
2023-02-13T19:33:33.306Z,5.35
2023-02-13T19:35:59.652Z,5.31
2023-02-13T19:38:25.946Z,5.31
2023-02-13T19:40:52.158Z,5.29
2023-02-13T19:43:18.396Z,5.27
2023-02-13T19:45:44.610Z,5.28
2023-02-13T19:48:43.957Z,5.33
2023-02-13T19:51:04.931Z,5.31
2023-02-13T19:53:31.154Z,5.27
2023-02-13T19:56:00.704Z,5.26
2023-02-13T19:58:26.932Z,5.30
2023-02-13T20:00:53.142Z,5.29
2023-02-13T20:03:19.355Z,5.32
2023-02-13T20:05:45.567Z,5.27
2023-02-13T20:08:11.826Z,5.30
2023-02-13T20:10:38.048Z,5.27
2023-02-13T20:13:04.286Z,5.27
2023-02-13T20:15:32.295Z,5.28
2023-02-13T20:17:58.654Z,5.31
2023-02-13T20:20:24.873Z,5.30
2023-02-13T20:22:51.094Z,5.28
2023-02-13T20:25:17.303Z,5.27
2023-02-13T20:27:43.526Z,5.29
2023-02-13T20:30:10.197Z,5.30
2023-02-13T20:32:36.503Z,5.27
2023-02-13T20:35:02.844Z,5.28
2023-02-13T20:37:29.067Z,5.29
2023-02-13T20:39:55.280Z,5.32
2023-02-13T20:42:21.482Z,5.30
2023-02-13T20:44:47.693Z,5.27
2023-02-13T20:47:13.913Z,5.27
2023-02-13T20:49:40.119Z,5.30
2023-02-13T20:52:06.355Z,5.34
2023-02-13T20:54:33.814Z,5.31
2023-02-13T20:57:00.131Z,5.33
2023-02-13T20:59:27.354Z,5.36
2023-02-13T21:01:53.566Z,5.37
2023-02-13T21:04:19.794Z,5.38
2023-02-13T21:06:46.020Z,5.37
2023-02-13T21:09:12.277Z,5.31
2023-02-13T21:11:39.176Z,5.33
2023-02-13T21:14:05.501Z,5.34
2023-02-13T21:16:32.725Z,5.31
2023-02-13T21:18:59.738Z,5.22
2023-02-13T21:21:26.660Z,5.25
2023-02-13T21:23:56.165Z,5.20
2023-02-13T21:26:22.463Z,5.22
2023-02-13T21:28:48.712Z,5.18
2023-02-13T21:31:16.140Z,5.20
2023-02-13T21:33:45.300Z,5.16
2023-02-13T21:36:11.774Z,5.12
2023-02-13T21:38:38.317Z,5.15
2023-02-13T21:41:05.475Z,5.10
2023-02-13T21:43:31.713Z,5.14
2023-02-13T21:46:05.388Z,5.21
2023-02-13T21:48:31.675Z,5.16
2023-02-13T21:50:58.158Z,5.16
2023-02-13T21:53:24.545Z,5.17
2023-02-13T21:55:50.748Z,5.25
2023-02-13T21:58:16.977Z,5.25
2023-02-13T22:00:43.202Z,5.28
2023-02-13T22:03:09.441Z,5.29
2023-02-13T22:05:35.710Z,5.17
2023-02-13T22:08:01.939Z,5.12
2023-02-13T22:10:28.173Z,5.17
2023-02-13T22:12:54.396Z,5.18
2023-02-13T22:15:20.623Z,5.12
2023-02-13T22:17:46.847Z,5.08
2023-02-13T22:20:13.175Z,5.05
2023-02-13T22:22:39.390Z,5.12
2023-02-13T22:25:05.726Z,5.18
2023-02-13T22:27:32.069Z,5.22
2023-02-13T22:29:58.315Z,5.13
2023-02-13T22:32:24.602Z,5.15
2023-02-13T22:34:50.876Z,5.08
2023-02-13T22:37:17.099Z,5.09
2023-02-13T22:39:43.320Z,5.11
2023-02-13T22:42:09.515Z,5.05
2023-02-13T22:44:35.748Z,5.01
2023-02-13T22:47:01.966Z,5.04
2023-02-13T22:49:28.190Z,5.08
2023-02-13T22:51:54.394Z,5.06
2023-02-13T22:54:20.638Z,4.94
2023-02-13T22:56:46.860Z,4.92
2023-02-13T22:59:13.093Z,5.00
2023-02-13T23:01:39.295Z,5.06
2023-02-13T23:04:05.525Z,5.11
2023-02-13T23:06:31.751Z,5.12
2023-02-13T23:08:57.976Z,5.16
2023-02-13T23:11:25.053Z,5.15
2023-02-13T23:13:51.282Z,5.11
2023-02-13T23:16:17.602Z,5.05
2023-02-13T23:18:43.960Z,4.94
2023-02-13T23:21:10.177Z,4.90
2023-02-13T23:23:36.396Z,4.84
2023-02-13T23:26:06.041Z,4.82
2023-02-13T23:28:32.283Z,4.87
2023-02-13T23:30:59.018Z,4.84
2023-02-13T23:33:25.489Z,4.83
2023-02-13T23:35:51.701Z,4.85
2023-02-13T23:38:17.926Z,4.82
2023-02-13T23:40:44.135Z,4.84
2023-02-13T23:43:10.333Z,4.90
2023-02-13T23:45:36.536Z,4.94
2023-02-13T23:48:02.744Z,4.94
2023-02-13T23:50:28.980Z,4.91
2023-02-13T23:52:55.186Z,4.89
2023-02-13T23:55:21.400Z,4.90
2023-02-13T23:57:47.608Z,4.91
